Terminal Aerodrome Forecast
Issued by NWS

Home | Current Version | Previous Version | Text Only | Print | Product List | Glossary On
Versions: 1 2 3 4 5 6 7 8 9 10 11 12 13 14 15 16 17
000
FTUS43 KLSX 050500
TAFSUS
TAF
KSUS 050520Z 0506/0606 20005KT P6SM SCT070 BKN250
     FM051800 21008G18KT P6SM SCT060
     FM060000 18004KT P6SM SCT250=

USA.gov is the U.S. government's official web portal to all federal, state and local government web resources and services.